createdAt,value
2023-02-16T00:02:14.789Z,3.10
2023-02-16T00:04:44.406Z,3.10
2023-02-16T00:07:13.732Z,3.10
2023-02-16T00:09:44.797Z,3.10
2023-02-16T00:12:39.198Z,3.10
2023-02-16T00:15:19.510Z,3.10
2023-02-16T00:17:48.978Z,3.10
2023-02-16T00:20:19.386Z,3.10
2023-02-16T00:22:48.706Z,3.00
2023-02-16T00:25:19.910Z,3.00
2023-02-16T00:27:49.332Z,3.00
2023-02-16T00:30:21.308Z,3.00
2023-02-16T00:32:50.820Z,3.00
2023-02-16T00:35:22.919Z,3.00
2023-02-16T00:37:52.294Z,3.00
2023-02-16T00:40:23.888Z,3.00
2023-02-16T00:42:53.155Z,2.90
2023-02-16T00:45:24.852Z,2.90
2023-02-16T00:47:55.735Z,2.80
2023-02-16T00:50:28.760Z,2.80
2023-02-16T00:52:59.646Z,2.80
2023-02-16T00:55:34.136Z,2.80
2023-02-16T00:58:08.724Z,2.80
2023-02-16T01:00:41.634Z,2.90
2023-02-16T01:03:14.681Z,2.90
2023-02-16T01:05:44.660Z,2.80
2023-02-16T01:08:33.578Z,2.80
2023-02-16T01:11:10.529Z,2.80
2023-02-16T01:13:44.017Z,2.80
2023-02-16T01:16:16.012Z,2.80
2023-02-16T01:18:46.014Z,2.70
2023-02-16T01:21:15.792Z,2.70
2023-02-16T01:23:45.134Z,2.70
2023-02-16T01:26:18.006Z,2.70
2023-02-16T01:28:47.485Z,2.60
2023-02-16T01:31:18.043Z,2.70
2023-02-16T01:33:47.447Z,2.60
2023-02-16T01:36:25.058Z,2.70
2023-02-16T01:38:54.773Z,2.60
2023-02-16T01:41:39.297Z,2.60
2023-02-16T01:44:14.710Z,2.60
2023-02-16T01:46:50.735Z,2.60
2023-02-16T01:49:22.504Z,2.50
2023-02-16T01:51:58.522Z,2.60
2023-02-16T01:54:37.555Z,2.60
2023-02-16T01:57:22.674Z,2.50
2023-02-16T02:00:12.000Z,2.50
2023-02-16T02:02:45.553Z,2.50
2023-02-16T02:05:36.024Z,2.50
2023-02-16T02:08:16.659Z,2.50
2023-02-16T02:10:56.232Z,2.50
2023-02-16T02:13:34.679Z,2.50
2023-02-16T02:16:07.612Z,2.40
2023-02-16T02:18:37.466Z,2.40
2023-02-16T02:21:44.814Z,2.50
2023-02-16T02:25:04.196Z,2.50
2023-02-16T02:27:38.690Z,2.40
2023-02-16T02:30:28.900Z,2.50
2023-02-16T02:33:13.590Z,2.50
2023-02-16T02:35:51.317Z,2.50
2023-02-16T02:38:29.225Z,2.50
2023-02-16T02:41:05.942Z,2.50
2023-02-16T02:43:42.610Z,2.40
2023-02-16T02:46:18.964Z,2.40
2023-02-16T02:48:48.605Z,2.40
2023-02-16T02:51:34.098Z,2.40
2023-02-16T02:54:24.234Z,2.30
2023-02-16T02:57:16.855Z,2.30
2023-02-16T03:00:09.009Z,2.30
2023-02-16T03:02:41.618Z,2.20
2023-02-16T03:05:13.078Z,2.30
2023-02-16T03:07:49.140Z,2.30
2023-02-16T03:10:39.741Z,2.30
2023-02-16T03:13:17.474Z,2.20
2023-02-16T03:15:51.318Z,2.30
2023-02-16T03:18:38.467Z,2.30
2023-02-16T03:21:25.314Z,2.20
2023-02-16T03:24:13.797Z,2.20
2023-02-16T03:27:00.606Z,2.20
2023-02-16T03:29:31.138Z,2.20
2023-02-16T03:32:02.402Z,2.30
2023-02-16T03:34:34.276Z,2.20
2023-02-16T03:37:03.643Z,2.30
2023-02-16T03:39:54.314Z,2.30
2023-02-16T03:42:24.750Z,2.30
2023-02-16T03:44:54.700Z,2.30
2023-02-16T03:47:25.418Z,2.20
2023-02-16T03:49:55.116Z,2.20
2023-02-16T03:52:24.393Z,2.20
2023-02-16T03:54:54.122Z,2.20
2023-02-16T03:57:23.388Z,2.20
2023-02-16T03:59:54.816Z,2.20
2023-02-16T04:02:25.301Z,2.10
2023-02-16T04:04:55.049Z,2.20
2023-02-16T04:07:24.302Z,2.20
2023-02-16T04:09:54.066Z,2.20
2023-02-16T04:12:43.238Z,2.20
2023-02-16T04:15:15.395Z,2.30
2023-02-16T04:17:46.567Z,2.30
2023-02-16T04:20:19.005Z,2.20
2023-02-16T04:22:48.979Z,2.20
2023-02-16T04:25:20.286Z,2.10
2023-02-16T04:27:49.480Z,2.20
2023-02-16T04:30:21.922Z,2.10
2023-02-16T04:32:52.935Z,2.10
2023-02-16T04:35:22.948Z,2.00
2023-02-16T04:37:52.197Z,2.00
2023-02-16T04:40:22.179Z,2.00
2023-02-16T04:42:51.422Z,2.00
2023-02-16T04:45:21.705Z,1.90
2023-02-16T04:47:52.496Z,1.90
2023-02-16T04:50:23.018Z,1.90
2023-02-16T04:52:52.620Z,1.90
2023-02-16T04:55:22.345Z,1.90
2023-02-16T04:57:51.571Z,1.80
2023-02-16T05:00:22.189Z,1.80
2023-02-16T05:02:53.397Z,1.90
2023-02-16T05:05:23.173Z,1.90
2023-02-16T05:07:52.953Z,1.90
2023-02-16T05:10:22.750Z,1.90
2023-02-16T05:13:23.807Z,2.00
2023-02-16T05:15:53.511Z,2.00
2023-02-16T05:18:24.385Z,2.00
2023-02-16T05:21:11.691Z,2.00
2023-02-16T05:23:41.162Z,2.00
2023-02-16T05:26:10.886Z,2.00
2023-02-16T05:28:40.163Z,2.00
2023-02-16T05:31:09.901Z,2.00
2023-02-16T05:33:40.735Z,2.00
2023-02-16T05:36:11.068Z,2.00
2023-02-16T05:38:40.355Z,2.00
2023-02-16T05:41:10.257Z,2.00
2023-02-16T05:43:39.592Z,2.00
2023-02-16T05:46:11.096Z,2.10
2023-02-16T05:48:41.876Z,2.10
2023-02-16T05:51:11.670Z,2.00
2023-02-16T05:53:41.315Z,2.00
2023-02-16T05:56:11.864Z,1.90
2023-02-16T05:58:41.829Z,1.90
2023-02-16T06:01:11.535Z,1.90
2023-02-16T06:03:42.341Z,1.90
2023-02-16T06:06:12.544Z,1.80
2023-02-16T06:08:42.177Z,1.80
2023-02-16T06:11:32.736Z,1.90
2023-02-16T06:14:03.646Z,1.80
2023-02-16T06:16:35.160Z,1.90
2023-02-16T06:19:06.449Z,1.90
2023-02-16T06:21:36.999Z,1.90
2023-02-16T06:24:10.005Z,1.90
2023-02-16T06:26:40.088Z,1.90
2023-02-16T06:29:09.809Z,1.90
2023-02-16T06:31:39.939Z,1.90
2023-02-16T06:34:10.796Z,1.90
2023-02-16T06:36:42.646Z,1.90
2023-02-16T06:39:12.114Z,1.90
2023-02-16T06:41:42.137Z,1.80
2023-02-16T06:44:14.254Z,1.90
2023-02-16T06:46:45.453Z,1.80
2023-02-16T06:49:18.376Z,1.90
2023-02-16T06:51:49.282Z,1.80
2023-02-16T06:54:19.105Z,1.80
2023-02-16T06:56:48.984Z,1.80
2023-02-16T06:59:18.603Z,1.90
2023-02-16T07:01:48.339Z,1.90
2023-02-16T07:04:19.072Z,1.80
2023-02-16T07:06:49.439Z,1.90
2023-02-16T07:09:18.729Z,1.90
2023-02-16T07:11:48.836Z,2.00
2023-02-16T07:14:18.188Z,2.00
2023-02-16T07:16:48.146Z,2.00
2023-02-16T07:19:18.906Z,2.00
2023-02-16T07:21:48.507Z,1.90
2023-02-16T07:24:18.321Z,1.90
2023-02-16T07:26:47.930Z,1.90
2023-02-16T07:29:17.254Z,1.80
2023-02-16T07:31:47.074Z,1.80
2023-02-16T07:34:19.657Z,1.90
2023-02-16T07:36:50.535Z,1.90
2023-02-16T07:39:19.862Z,1.90
2023-02-16T07:41:49.514Z,1.90
2023-02-16T07:44:18.794Z,1.90
2023-02-16T07:46:48.466Z,1.90
2023-02-16T07:49:19.406Z,1.90
2023-02-16T07:51:49.039Z,1.90
2023-02-16T07:54:18.386Z,2.00
2023-02-16T07:56:48.498Z,2.10
2023-02-16T07:59:18.169Z,2.10
2023-02-16T08:01:47.828Z,2.20
2023-02-16T08:04:18.853Z,2.20
2023-02-16T08:06:48.952Z,2.30
2023-02-16T08:09:18.704Z,2.30
2023-02-16T08:11:48.424Z,2.20
2023-02-16T08:14:17.857Z,2.30
2023-02-16T08:16:49.062Z,2.40
2023-02-16T08:19:21.815Z,2.40
2023-02-16T08:21:51.796Z,2.30
2023-02-16T08:24:21.571Z,2.30
2023-02-16T08:26:53.348Z,2.30
2023-02-16T08:29:23.462Z,2.30
2023-02-16T08:31:55.721Z,2.30
2023-02-16T08:34:26.969Z,2.30
2023-02-16T08:36:59.430Z,2.20
2023-02-16T08:39:31.588Z,2.40
2023-02-16T08:42:02.529Z,2.30
2023-02-16T08:44:32.277Z,2.30
2023-02-16T08:47:03.013Z,2.30
2023-02-16T08:49:33.934Z,2.50
2023-02-16T08:52:04.505Z,2.50
2023-02-16T08:54:33.954Z,2.60
2023-02-16T08:57:04.518Z,2.70
2023-02-16T08:59:34.787Z,2.70
2023-02-16T09:02:04.951Z,2.70
2023-02-16T09:04:37.028Z,2.70
2023-02-16T09:07:06.637Z,2.70
2023-02-16T09:09:35.984Z,2.80
2023-02-16T09:12:08.338Z,2.90
2023-02-16T09:14:37.931Z,3.00
2023-02-16T09:17:07.569Z,3.10
2023-02-16T09:19:38.383Z,3.00
2023-02-16T09:22:08.749Z,3.10
2023-02-16T09:24:38.077Z,3.10
2023-02-16T09:27:07.735Z,3.20
2023-02-16T09:29:37.011Z,3.30
2023-02-16T09:32:06.814Z,3.30
2023-02-16T09:34:38.775Z,3.40
2023-02-16T09:37:09.214Z,3.50
2023-02-16T09:39:38.743Z,3.60
2023-02-16T09:42:20.176Z,3.60
2023-02-16T09:44:52.551Z,3.80
2023-02-16T09:47:29.574Z,3.80
2023-02-16T09:50:02.199Z,3.90
2023-02-16T09:52:40.665Z,4.00
2023-02-16T09:55:13.479Z,4.00
2023-02-16T09:58:04.516Z,4.10
2023-02-16T10:00:46.196Z,4.20
2023-02-16T10:03:37.460Z,4.20
2023-02-16T10:06:25.184Z,4.40
2023-02-16T10:08:58.880Z,4.60
2023-02-16T10:11:42.315Z,4.80
2023-02-16T10:14:31.045Z,5.00
2023-02-16T10:17:09.504Z,5.20
2023-02-16T10:19:42.958Z,5.30
2023-02-16T10:22:17.653Z,5.50
2023-02-16T10:24:54.383Z,5.60
2023-02-16T10:27:24.368Z,5.80
2023-02-16T10:29:54.835Z,5.80
2023-02-16T10:32:30.864Z,5.90
2023-02-16T10:35:12.022Z,6.00
2023-02-16T10:38:01.940Z,6.10
2023-02-16T10:40:52.640Z,6.20
2023-02-16T10:43:27.083Z,6.40
2023-02-16T10:46:00.585Z,6.60
2023-02-16T10:48:30.320Z,6.70
2023-02-16T10:51:05.030Z,6.80
2023-02-16T10:53:47.092Z,7.00
2023-02-16T10:56:43.235Z,7.10
2023-02-16T10:59:18.030Z,7.40
2023-02-16T11:01:50.115Z,7.50
2023-02-16T11:04:34.082Z,7.60
2023-02-16T11:07:06.719Z,7.70
2023-02-16T11:09:38.057Z,7.80
2023-02-16T11:12:19.035Z,8.00
2023-02-16T11:14:54.089Z,8.20
2023-02-16T11:17:26.490Z,8.40
2023-02-16T11:20:01.827Z,8.20
2023-02-16T11:22:35.982Z,7.90
2023-02-16T11:25:27.709Z,8.10
2023-02-16T11:27:59.558Z,8.30
2023-02-16T11:30:33.405Z,8.50
2023-02-16T11:33:05.145Z,8.30
2023-02-16T11:35:42.559Z,8.20
2023-02-16T11:38:29.391Z,8.30
2023-02-16T11:41:01.292Z,8.10
2023-02-16T11:43:35.141Z,8.40
2023-02-16T11:46:07.127Z,8.90
2023-02-16T11:48:36.982Z,9.80
2023-02-16T11:51:08.261Z,10.80
2023-02-16T11:53:42.426Z,12.00
2023-02-16T11:56:20.759Z,12.40
2023-02-16T11:59:09.397Z,12.60
2023-02-16T12:01:55.024Z,12.10
2023-02-16T12:04:40.433Z,11.50
2023-02-16T12:07:18.111Z,10.60
2023-02-16T12:09:55.661Z,10.20
2023-02-16T12:12:34.774Z,10.30
2023-02-16T12:15:14.712Z,10.90
2023-02-16T12:18:12.169Z,11.20
2023-02-16T12:20:51.426Z,10.80
2023-02-16T12:23:38.559Z,11.50
2023-02-16T12:26:38.626Z,11.30
2023-02-16T12:29:20.923Z,11.40
2023-02-16T12:32:06.206Z,11.60
2023-02-16T12:34:48.285Z,11.70
2023-02-16T12:37:28.018Z,11.70
2023-02-16T12:40:08.463Z,12.00
2023-02-16T12:43:00.320Z,12.50
2023-02-16T12:45:36.884Z,12.40
2023-02-16T12:48:28.727Z,12.90
2023-02-16T12:51:00.185Z,12.90
2023-02-16T12:53:40.181Z,12.70
2023-02-16T12:56:18.089Z,12.00
2023-02-16T12:58:53.701Z,11.20
2023-02-16T13:01:29.883Z,10.90
2023-02-16T13:04:05.120Z,10.80
2023-02-16T13:06:40.494Z,11.10
2023-02-16T13:09:23.939Z,11.10
2023-02-16T13:11:58.040Z,11.60
2023-02-16T13:14:32.020Z,11.60
2023-02-16T13:17:07.017Z,11.40
2023-02-16T13:19:37.501Z,11.40
2023-02-16T13:22:38.340Z,11.50
2023-02-16T13:25:47.171Z,11.40
2023-02-16T13:28:34.900Z,11.40
2023-02-16T13:31:34.125Z,11.60
2023-02-16T13:34:24.184Z,11.60
2023-02-16T13:37:17.839Z,11.50
2023-02-16T13:40:16.061Z,11.60
2023-02-16T13:43:15.405Z,11.60
2023-02-16T13:45:47.707Z,11.30
2023-02-16T13:48:23.597Z,11.20
2023-02-16T13:51:01.517Z,11.20
2023-02-16T13:53:36.558Z,11.10
2023-02-16T13:56:22.520Z,11.10
2023-02-16T13:58:53.319Z,11.30
2023-02-16T14:01:43.367Z,11.20
2023-02-16T14:04:15.564Z,11.20
2023-02-16T14:06:46.572Z,11.10
2023-02-16T14:09:52.214Z,10.80
2023-02-16T14:12:24.490Z,10.60
2023-02-16T14:15:05.943Z,10.50
2023-02-16T14:17:36.892Z,10.20
2023-02-16T14:20:29.172Z,10.20
2023-02-16T14:23:01.368Z,10.30
2023-02-16T14:25:41.718Z,10.30
2023-02-16T14:28:48.211Z,10.40
2023-02-16T14:31:23.239Z,10.30
2023-02-16T14:34:03.880Z,10.20
2023-02-16T14:36:33.937Z,10.10
2023-02-16T14:39:05.150Z,10.10
2023-02-16T14:41:37.094Z,10.10
2023-02-16T14:44:38.839Z,9.90
2023-02-16T14:47:18.387Z,9.80
2023-02-16T14:50:12.934Z,9.80
2023-02-16T14:53:18.708Z,9.60
2023-02-16T14:56:12.945Z,9.60
2023-02-16T14:58:53.528Z,9.60
2023-02-16T15:01:25.294Z,9.40
2023-02-16T15:03:56.674Z,9.40
2023-02-16T15:06:33.753Z,9.30
2023-02-16T15:09:07.720Z,9.40
2023-02-16T15:12:02.871Z,9.30
2023-02-16T15:14:37.095Z,9.20
2023-02-16T15:17:10.468Z,9.20
2023-02-16T15:19:40.369Z,9.20
2023-02-16T15:22:19.449Z,9.10
2023-02-16T15:24:58.203Z,9.00
2023-02-16T15:27:30.479Z,9.00
2023-02-16T15:30:09.684Z,8.80
2023-02-16T15:32:39.183Z,8.80
2023-02-16T15:35:15.081Z,8.70
2023-02-16T15:37:44.387Z,8.60
2023-02-16T15:40:25.607Z,8.50
2023-02-16T15:43:01.874Z,8.40
2023-02-16T15:45:35.595Z,8.30
2023-02-16T15:48:29.608Z,8.10
2023-02-16T15:51:08.010Z,8.00
2023-02-16T15:53:45.247Z,7.90
2023-02-16T15:56:40.099Z,7.80
2023-02-16T15:59:35.545Z,7.80
2023-02-16T16:02:14.945Z,7.80
2023-02-16T16:04:46.010Z,7.70
2023-02-16T16:07:18.522Z,7.70
2023-02-16T16:09:48.551Z,7.70
2023-02-16T16:12:20.950Z,7.70
2023-02-16T16:14:54.758Z,7.60
2023-02-16T16:17:28.304Z,7.50
2023-02-16T16:19:58.354Z,7.40
2023-02-16T16:22:35.855Z,7.40
2023-02-16T16:25:29.275Z,7.30
2023-02-16T16:27:59.089Z,7.20
2023-02-16T16:30:32.137Z,7.20
2023-02-16T16:33:03.300Z,7.20
2023-02-16T16:35:42.082Z,7.20
2023-02-16T16:38:25.668Z,7.20
2023-02-16T16:40:57.279Z,7.20
2023-02-16T16:43:30.700Z,7.20
2023-02-16T16:46:15.749Z,7.20
2023-02-16T16:48:47.753Z,7.10
2023-02-16T16:51:19.025Z,7.00
2023-02-16T16:53:57.611Z,6.90
2023-02-16T16:56:27.117Z,6.80
2023-02-16T16:59:00.116Z,6.70
2023-02-16T17:01:32.132Z,6.60
2023-02-16T17:04:02.427Z,6.60
2023-02-16T17:06:32.705Z,6.60
2023-02-16T17:09:03.456Z,6.60
2023-02-16T17:11:35.585Z,6.60
2023-02-16T17:14:10.877Z,6.60
2023-02-16T17:16:44.678Z,6.60
2023-02-16T17:19:14.816Z,6.50
2023-02-16T17:21:44.495Z,6.50
2023-02-16T17:24:14.367Z,6.40
2023-02-16T17:26:43.950Z,6.40
2023-02-16T17:29:13.889Z,6.30
2023-02-16T17:31:44.733Z,6.30
2023-02-16T17:34:14.846Z,6.30
2023-02-16T17:36:44.459Z,6.20
2023-02-16T17:39:14.210Z,6.20
2023-02-16T17:41:43.886Z,6.20
2023-02-16T17:44:13.992Z,6.10
2023-02-16T17:46:46.326Z,6.10
2023-02-16T17:49:16.505Z,6.10
2023-02-16T17:51:45.917Z,6.10
2023-02-16T17:54:15.569Z,6.10
2023-02-16T17:56:47.204Z,6.10
2023-02-16T17:59:17.810Z,6.10
2023-02-16T18:01:48.521Z,6.10
2023-02-16T18:04:18.235Z,6.00
2023-02-16T18:06:47.804Z,6.00
2023-02-16T18:09:23.825Z,6.00
2023-02-16T18:11:53.921Z,6.00
2023-02-16T18:14:23.629Z,5.90
2023-02-16T18:16:55.314Z,5.90
2023-02-16T18:19:25.016Z,5.90
2023-02-16T18:21:54.838Z,5.90
2023-02-16T18:24:24.970Z,5.90
2023-02-16T18:26:55.012Z,5.90
2023-02-16T18:29:24.974Z,5.80
2023-02-16T18:31:56.090Z,5.90
2023-02-16T18:34:26.420Z,6.00
2023-02-16T18:36:55.671Z,6.00
2023-02-16T18:39:25.538Z,6.10
2023-02-16T18:41:54.853Z,6.10
2023-02-16T18:44:24.844Z,6.20
2023-02-16T18:46:55.687Z,6.30
2023-02-16T18:49:25.549Z,6.40
2023-02-16T18:51:54.921Z,6.50
2023-02-16T18:54:24.552Z,6.50
2023-02-16T18:56:53.839Z,6.60
2023-02-16T18:59:23.478Z,6.60
2023-02-16T19:01:58.088Z,6.60
2023-02-16T19:04:28.779Z,6.70
2023-02-16T19:06:58.767Z,6.80
2023-02-16T19:09:28.551Z,6.90
2023-02-16T19:11:58.164Z,6.80
2023-02-16T19:14:27.825Z,6.80
2023-02-16T19:16:59.540Z,6.90
2023-02-16T19:19:31.005Z,7.00
2023-02-16T19:22:00.479Z,6.90
2023-02-16T19:24:31.254Z,7.00
2023-02-16T19:27:00.584Z,7.00
2023-02-16T19:29:30.242Z,7.10
2023-02-16T19:32:01.264Z,7.10
2023-02-16T19:34:31.279Z,7.10
2023-02-16T19:37:00.604Z,7.10
2023-02-16T19:39:30.233Z,7.20
2023-02-16T19:42:00.154Z,7.10
2023-02-16T19:44:30.446Z,7.10
2023-02-16T19:47:01.499Z,7.10
2023-02-16T19:49:31.261Z,7.20
2023-02-16T19:52:02.781Z,7.20
2023-02-16T19:54:35.076Z,7.20
2023-02-16T19:57:05.997Z,7.30
2023-02-16T19:59:35.784Z,7.30
2023-02-16T20:02:06.541Z,7.30
2023-02-16T20:04:36.169Z,7.20
2023-02-16T20:07:06.098Z,7.20
2023-02-16T20:09:36.972Z,7.30
2023-02-16T20:12:06.961Z,7.30
2023-02-16T20:14:37.057Z,7.20
2023-02-16T20:17:07.762Z,7.20
2023-02-16T20:19:37.394Z,7.20
2023-02-16T20:22:06.807Z,7.30
2023-02-16T20:24:36.816Z,7.20
2023-02-16T20:27:06.109Z,7.10
2023-02-16T20:29:35.728Z,7.10
2023-02-16T20:32:07.155Z,7.10
2023-02-16T20:34:36.807Z,7.10
2023-02-16T20:37:06.311Z,7.20
2023-02-16T20:39:36.262Z,7.10
2023-02-16T20:42:05.958Z,7.10
2023-02-16T20:44:35.607Z,7.10
2023-02-16T20:47:08.347Z,7.10
2023-02-16T20:49:38.038Z,7.10
2023-02-16T20:52:09.696Z,7.10
2023-02-16T20:54:39.539Z,7.10
2023-02-16T20:57:24.762Z,7.10
2023-02-16T20:59:56.197Z,7.10
2023-02-16T21:02:26.982Z,7.20
2023-02-16T21:04:56.939Z,7.20
2023-02-16T21:07:26.184Z,7.20
2023-02-16T21:09:56.143Z,7.20
2023-02-16T21:12:25.397Z,7.20
2023-02-16T21:14:55.152Z,7.20
2023-02-16T21:17:25.928Z,7.30
2023-02-16T21:19:56.151Z,7.20
2023-02-16T21:22:25.886Z,7.20
2023-02-16T21:24:55.468Z,7.20
2023-02-16T21:27:24.846Z,7.20
2023-02-16T21:29:54.639Z,7.20
2023-02-16T21:32:24.056Z,7.20
2023-02-16T21:34:55.622Z,7.20
2023-02-16T21:37:24.922Z,7.20
2023-02-16T21:40:11.692Z,7.20
2023-02-16T21:42:40.964Z,7.20
2023-02-16T21:45:14.154Z,7.20
2023-02-16T21:48:02.964Z,7.20
2023-02-16T21:50:37.726Z,7.30
2023-02-16T21:53:07.627Z,7.20
2023-02-16T21:55:56.244Z,7.20
2023-02-16T21:58:27.054Z,7.20
2023-02-16T22:00:57.107Z,7.20
2023-02-16T22:03:26.345Z,7.20
2023-02-16T22:05:57.428Z,7.10
2023-02-16T22:08:26.669Z,7.10
2023-02-16T22:10:56.688Z,7.10
2023-02-16T22:13:26.053Z,7.20
2023-02-16T22:15:55.687Z,7.20
2023-02-16T22:18:25.137Z,7.10
2023-02-16T22:20:56.917Z,7.10
2023-02-16T22:23:25.845Z,7.10
2023-02-16T22:25:55.586Z,7.00
2023-02-16T22:28:25.371Z,7.10
2023-02-16T22:30:55.054Z,7.10
2023-02-16T22:33:24.347Z,7.00
2023-02-16T22:35:53.968Z,7.00
2023-02-16T22:38:24.759Z,7.00
2023-02-16T22:40:54.515Z,7.00
2023-02-16T22:43:23.765Z,7.00
2023-02-16T22:45:53.399Z,7.00
2023-02-16T22:48:22.734Z,7.00
2023-02-16T22:50:59.542Z,7.00
2023-02-16T22:53:31.215Z,7.00
2023-02-16T22:56:01.000Z,7.00
2023-02-16T22:58:30.955Z,7.00
2023-02-16T23:01:01.008Z,6.90
2023-02-16T23:03:31.424Z,6.90
2023-02-16T23:06:01.315Z,6.90
2023-02-16T23:08:32.096Z,6.90
2023-02-16T23:11:05.605Z,6.90
2023-02-16T23:13:35.937Z,6.90
2023-02-16T23:16:07.498Z,6.90
2023-02-16T23:18:37.299Z,6.90
2023-02-16T23:21:08.472Z,6.90
2023-02-16T23:23:39.317Z,6.90
2023-02-16T23:26:10.020Z,6.90
2023-02-16T23:28:41.289Z,6.90
2023-02-16T23:31:12.912Z,6.90
2023-02-16T23:33:42.424Z,6.90
2023-02-16T23:36:12.547Z,6.80
2023-02-16T23:38:43.814Z,6.90
2023-02-16T23:41:18.343Z,6.80
2023-02-16T23:43:47.634Z,6.80
2023-02-16T23:46:17.767Z,6.80
2023-02-16T23:48:47.099Z,6.80
2023-02-16T23:51:17.157Z,6.80
2023-02-16T23:53:47.883Z,6.80
2023-02-16T23:56:20.300Z,6.80
2023-02-16T23:58:50.242Z,6.80
